createdAt,value
2023-02-06T00:00:54.038Z,93.50
2023-02-06T00:06:16.411Z,92.50
2023-02-06T00:11:22.361Z,99.70
2023-02-06T00:16:28.785Z,96.60
2023-02-06T00:21:33.275Z,106.10
2023-02-06T00:26:37.593Z,99.40
2023-02-06T00:31:41.448Z,117.70
2023-02-06T00:36:45.827Z,107.20
2023-02-06T00:41:51.034Z,133.60
2023-02-06T00:46:55.553Z,123.30
2023-02-06T00:51:59.353Z,111.20
2023-02-06T00:57:03.291Z,113.50
2023-02-06T01:02:07.199Z,108.40
2023-02-06T01:07:11.017Z,111.60
2023-02-06T01:12:15.009Z,110.30
2023-02-06T01:17:18.648Z,99.80
2023-02-06T01:22:22.490Z,103.60
2023-02-06T01:27:26.261Z,112.70
2023-02-06T01:32:30.985Z,100.10
2023-02-06T01:37:35.368Z,113.10
2023-02-06T01:42:39.119Z,116.00
2023-02-06T01:47:43.961Z,118.90
2023-02-06T01:52:47.932Z,117.70
2023-02-06T01:57:52.765Z,123.10
2023-02-06T02:02:58.419Z,126.70
2023-02-06T02:08:07.251Z,110.90
2023-02-06T02:13:11.682Z,123.20
2023-02-06T02:18:41.433Z,118.40
2023-02-06T02:24:07.900Z,105.20
2023-02-06T02:29:53.620Z,115.20
2023-02-06T02:35:08.427Z,104.00
2023-02-06T02:40:25.449Z,98.10
2023-02-06T02:45:53.036Z,111.30
2023-02-06T02:50:58.733Z,92.60
2023-02-06T02:56:03.356Z,94.20
2023-02-06T03:01:11.834Z,102.10
2023-02-06T03:06:38.932Z,101.00
2023-02-06T03:11:50.910Z,97.60
2023-02-06T03:17:06.653Z,106.20
2023-02-06T03:22:10.972Z,107.40
2023-02-06T03:27:17.530Z,113.70
2023-02-06T03:32:25.865Z,121.60
2023-02-06T03:37:30.395Z,128.00
2023-02-06T03:42:38.041Z,93.20
2023-02-06T03:47:43.423Z,93.30
2023-02-06T03:52:49.503Z,116.40
2023-02-06T03:57:57.309Z,94.30
2023-02-06T04:03:01.531Z,102.10
2023-02-06T04:08:06.161Z,91.90
2023-02-06T04:13:10.758Z,123.80
2023-02-06T04:18:14.528Z,100.50
2023-02-06T04:23:19.919Z,95.10
2023-02-06T04:28:23.739Z,79.80
2023-02-06T04:33:27.488Z,79.00
2023-02-06T04:38:31.256Z,85.70
2023-02-06T04:43:38.163Z,82.30
2023-02-06T04:48:42.197Z,81.30
2023-02-06T04:53:46.777Z,94.00
2023-02-06T04:58:50.484Z,107.50
2023-02-06T05:03:54.264Z,105.70
2023-02-06T05:08:59.333Z,98.60
2023-02-06T05:14:03.792Z,109.20
2023-02-06T05:19:08.076Z,110.00
2023-02-06T05:24:11.770Z,99.60
2023-02-06T05:29:15.562Z,88.00
2023-02-06T05:34:19.260Z,116.00
2023-02-06T05:39:23.130Z,109.30
2023-02-06T05:44:27.943Z,96.70
2023-02-06T05:49:32.178Z,100.70
2023-02-06T05:54:36.073Z,76.70
2023-02-06T05:59:39.974Z,89.70
2023-02-06T06:04:43.715Z,108.00
2023-02-06T06:09:49.622Z,95.20
2023-02-06T06:14:53.313Z,105.00
2023-02-06T06:19:57.320Z,114.50
2023-02-06T06:25:02.101Z,104.90
2023-02-06T06:30:07.016Z,102.80
2023-02-06T06:35:10.866Z,84.10
2023-02-06T06:40:14.806Z,95.50
2023-02-06T06:45:18.755Z,88.30
2023-02-06T06:50:22.574Z,109.30
2023-02-06T06:55:27.021Z,112.30
2023-02-06T07:00:31.173Z,100.50
2023-02-06T07:05:36.142Z,96.00
2023-02-06T07:10:40.187Z,87.10
2023-02-06T07:15:44.087Z,93.30
2023-02-06T07:20:47.982Z,101.00
2023-02-06T07:25:51.867Z,120.40
2023-02-06T07:30:55.986Z,100.00
2023-02-06T07:36:16.317Z,103.60
2023-02-06T07:41:23.936Z,102.30
2023-02-06T07:46:28.573Z,98.10
2023-02-06T07:51:35.266Z,96.20
2023-02-06T07:56:39.917Z,85.50
2023-02-06T08:01:43.720Z,86.50
2023-02-06T08:06:48.228Z,85.40
2023-02-06T08:11:52.033Z,77.10
2023-02-06T08:16:56.991Z,83.20
2023-02-06T08:22:01.192Z,65.60
2023-02-06T08:27:08.246Z,72.60
2023-02-06T08:32:12.137Z,62.70
2023-02-06T08:37:19.276Z,59.20
2023-02-06T08:42:23.226Z,59.50
2023-02-06T08:47:27.256Z,48.60
2023-02-06T08:52:30.998Z,42.70
2023-02-06T08:57:35.857Z,38.40
2023-02-06T09:02:39.861Z,46.80
2023-02-06T09:07:44.065Z,39.90
2023-02-06T09:12:48.026Z,44.80
2023-02-06T09:17:52.202Z,45.90
2023-02-06T09:22:55.793Z,40.30
2023-02-06T09:27:59.594Z,47.00
2023-02-06T09:33:03.580Z,59.80
2023-02-06T09:38:07.482Z,44.10
2023-02-06T09:43:12.680Z,40.90
2023-02-06T09:48:16.278Z,44.20
2023-02-06T09:53:30.629Z,45.30
2023-02-06T09:58:51.981Z,39.90
2023-02-06T10:04:28.186Z,36.30
2023-02-06T10:09:59.393Z,37.90
2023-02-06T10:15:30.594Z,26.50
2023-02-06T10:20:42.816Z,18.20
2023-02-06T10:26:26.227Z,32.80
2023-02-06T10:31:45.400Z,14.20
2023-02-06T10:37:06.760Z,18.40
2023-02-06T10:42:20.597Z,19.10
2023-02-06T10:47:58.674Z,18.10
2023-02-06T10:53:18.677Z,19.50
2023-02-06T10:58:35.812Z,11.90
2023-02-06T11:26:31.997Z,12.30
2023-02-06T11:31:59.473Z,17.30
2023-02-06T11:44:41.272Z,16.00
2023-02-06T11:50:25.384Z,17.40
2023-02-06T11:56:06.220Z,14.70
2023-02-06T12:01:18.509Z,16.60
2023-02-06T12:06:41.310Z,18.60
2023-02-06T12:12:36.321Z,19.80
2023-02-06T12:17:43.247Z,18.50
2023-02-06T12:22:55.238Z,15.90
2023-02-06T12:28:16.578Z,15.80
2023-02-06T12:33:26.697Z,13.20
2023-02-06T12:39:01.831Z,9.60
2023-02-06T12:44:38.049Z,9.70
2023-02-06T12:50:17.044Z,11.50
2023-02-06T12:55:30.392Z,13.70
2023-02-06T13:00:45.299Z,12.30
2023-02-06T13:06:13.325Z,12.50
2023-02-06T13:11:32.788Z,11.70
2023-02-06T13:16:44.710Z,13.20
2023-02-06T13:22:08.315Z,13.80
2023-02-06T13:32:22.383Z,14.00
2023-02-06T13:37:38.578Z,12.30
2023-02-06T13:42:59.350Z,16.80
2023-02-06T13:48:32.153Z,17.30
2023-02-06T13:54:13.768Z,20.40
2023-02-06T13:59:30.518Z,24.00
2023-02-06T14:04:34.357Z,21.20
2023-02-06T14:10:00.063Z,14.70
2023-02-06T14:15:26.277Z,18.40
2023-02-06T14:21:07.921Z,16.70
2023-02-06T14:26:30.483Z,15.70
2023-02-06T14:31:53.196Z,18.40
2023-02-06T14:37:21.047Z,19.20
2023-02-06T14:42:36.075Z,19.30
2023-02-06T14:47:43.462Z,24.70
2023-02-06T14:52:59.468Z,19.70
2023-02-06T14:58:04.500Z,21.00
2023-02-06T15:03:16.359Z,56.00
2023-02-06T15:08:21.620Z,27.70
2023-02-06T15:13:35.035Z,24.00
2023-02-06T15:18:38.876Z,22.60
2023-02-06T15:24:04.046Z,21.10
2023-02-06T15:29:19.674Z,44.40
2023-02-06T15:34:24.985Z,32.10
2023-02-06T15:39:28.682Z,27.00
2023-02-06T15:44:35.321Z,23.10
2023-02-06T15:50:00.798Z,23.20
2023-02-06T15:55:05.213Z,27.40
2023-02-06T16:00:29.973Z,23.00
2023-02-06T16:05:36.598Z,30.40
2023-02-06T16:10:41.511Z,30.60
2023-02-06T16:16:03.219Z,39.00
2023-02-06T16:21:23.477Z,49.00
2023-02-06T16:26:29.984Z,64.30
2023-02-06T16:31:35.950Z,296.30
2023-02-06T16:36:39.816Z,141.70
2023-02-06T16:41:46.473Z,282.80
2023-02-06T16:47:04.077Z,131.10
2023-02-06T16:52:15.236Z,126.90
2023-02-06T16:57:43.700Z,316.40
2023-02-06T17:02:52.702Z,166.70
2023-02-06T17:08:00.123Z,107.90
2023-02-06T17:13:10.478Z,96.40
2023-02-06T17:18:32.076Z,127.20
2023-02-06T17:23:38.836Z,285.20
2023-02-06T17:28:47.300Z,287.70
2023-02-06T17:33:55.269Z,117.80
2023-02-06T17:39:08.913Z,114.30
2023-02-06T17:44:35.142Z,130.00
2023-02-06T17:49:50.959Z,214.70
2023-02-06T17:55:03.972Z,118.40
2023-02-06T18:00:21.902Z,304.20
2023-02-06T18:05:32.891Z,182.40
2023-02-06T18:10:48.776Z,203.30
2023-02-06T18:16:06.097Z,204.30
2023-02-06T18:21:30.928Z,86.90
2023-02-06T18:26:37.956Z,84.20
2023-02-06T18:31:43.866Z,113.50
2023-02-06T18:36:53.825Z,124.70
2023-02-06T18:42:17.448Z,180.50
2023-02-06T18:47:25.427Z,135.10
2023-02-06T18:52:34.717Z,152.20
2023-02-06T18:57:41.665Z,313.70
2023-02-06T19:02:54.764Z,170.20
2023-02-06T19:08:08.485Z,183.50
2023-02-06T19:13:15.261Z,259.30
2023-02-06T19:18:37.592Z,141.40
2023-02-06T19:23:51.532Z,129.80
2023-02-06T19:28:57.729Z,178.40
2023-02-06T19:34:03.401Z,156.00
2023-02-06T19:39:10.341Z,186.50
2023-02-06T19:44:16.545Z,128.80
2023-02-06T19:49:21.881Z,204.20
2023-02-06T19:54:27.598Z,167.80
2023-02-06T19:59:33.796Z,133.20
2023-02-06T20:04:40.665Z,235.30
2023-02-06T20:09:48.350Z,203.80
2023-02-06T20:15:05.959Z,162.70
2023-02-06T20:20:12.259Z,111.80
2023-02-06T20:25:18.252Z,130.60
2023-02-06T20:30:25.050Z,142.70
2023-02-06T20:35:30.369Z,135.40
2023-02-06T20:40:37.243Z,129.00
2023-02-06T20:45:43.587Z,121.00
2023-02-06T20:50:50.626Z,114.20
2023-02-06T20:56:03.054Z,173.60
2023-02-06T21:01:17.519Z,145.90
2023-02-06T21:06:22.518Z,73.80
2023-02-06T21:11:34.862Z,79.90
2023-02-06T21:16:40.583Z,93.10
2023-02-06T21:21:46.441Z,114.80
2023-02-06T21:26:59.164Z,118.30
2023-02-06T21:32:13.353Z,108.80
2023-02-06T21:37:19.989Z,110.90
2023-02-06T21:42:27.822Z,133.00
2023-02-06T21:47:32.365Z,129.60
2023-02-06T21:52:37.263Z,147.70
2023-02-06T21:57:41.097Z,92.80
2023-02-06T22:02:45.267Z,109.40
2023-02-06T22:07:49.057Z,143.80
2023-02-06T22:12:56.202Z,149.60
2023-02-06T22:18:03.044Z,127.30
2023-02-06T22:23:06.716Z,107.20
2023-02-06T22:28:10.482Z,116.40
2023-02-06T22:33:15.792Z,108.50
2023-02-06T22:38:21.372Z,114.10
2023-02-06T22:43:26.308Z,105.70
2023-02-06T22:48:30.369Z,127.20
2023-02-06T22:53:38.649Z,171.10
2023-02-06T22:58:43.632Z,146.40
2023-02-06T23:03:52.790Z,145.30
2023-02-06T23:08:57.952Z,200.50
2023-02-06T23:14:04.130Z,344.70
2023-02-06T23:19:08.528Z,255.10
2023-02-06T23:24:13.529Z,178.00
2023-02-06T23:29:19.813Z,167.30
2023-02-06T23:34:24.733Z,160.40
2023-02-06T23:39:29.126Z,191.70
2023-02-06T23:44:32.813Z,154.80
2023-02-06T23:49:36.573Z,191.20
2023-02-06T23:54:40.307Z,205.40
2023-02-06T23:59:44.312Z,179.10
